Time;durP1;ratioP1;P1;durP2;ratioP2;P2;SDS_P1;SDS_P2;PMS_P1;PMS_P2;Temp;Humidity;BMP_temperature;BMP_pressure;BME280_temperature;BME280_humidity;BME280_pressure;Samples;Min_cycle;Max_cycle;Signal;HPM_P1;HPM_P2
2022/10/29 00:00:20;;;;;;;6.03;3.33;;;;;;;18.25;65.80;102197.47;5077130;28;20029;-79
2022/10/29 00:02:46;;;;;;;5.28;3.00;;;;;;;18.24;65.69;102201.78;5078356;28;20033;-80
2022/10/29 00:05:11;;;;;;;5.32;3.13;;;;;;;18.24;65.77;102195.72;5076950;28;20082;-80
2022/10/29 00:07:36;;;;;;;4.82;2.75;;;;;;;18.24;65.63;102195.72;5076091;28;20026;-78
2022/10/29 00:10:02;;;;;;;5.78;3.05;;;;;;;18.24;65.93;102193.97;5059520;28;20048;-80
2022/10/29 00:12:27;;;;;;;5.20;2.90;;;;;;;18.23;65.84;102181.81;5075486;28;20020;-81
2022/10/29 00:14:53;;;;;;;6.53;2.92;;;;;;;18.23;65.84;102173.16;5059462;28;20036;-78
2022/10/29 00:17:18;;;;;;;3.80;2.50;;;;;;;18.22;65.86;102167.03;5059753;28;20498;-80
2022/10/29 00:19:43;;;;;;;5.15;2.72;;;;;;;18.22;65.60;102164.44;5059228;28;20053;-80
2022/10/29 00:22:09;;;;;;;5.57;2.70;;;;;;;18.22;65.72;102168.78;5059973;28;20161;-81
2022/10/29 00:24:34;;;;;;;4.95;2.67;;;;;;;18.22;65.78;102171.38;5075849;28;20482;-78
2022/10/29 00:27:00;;;;;;;6.05;2.97;;;;;;;18.22;65.75;102181.81;5059399;28;20025;-80
2022/10/29 00:29:25;;;;;;;4.55;2.67;;;;;;;18.22;65.44;102177.44;5076179;28;20033;-79
2022/10/29 00:31:50;;;;;;;3.67;2.45;;;;;;;18.22;65.71;102177.44;5058950;28;20035;-79
2022/10/29 00:34:16;;;;;;;5.63;2.40;;;;;;;18.20;65.74;102171.34;5092134;28;20029;-79
2022/10/29 00:36:41;;;;;;;6.28;2.45;;;;;;;18.22;65.60;102169.63;5074530;28;20024;-80
2022/10/29 00:39:13;;;;;;;5.70;2.83;;;;;;;18.22;65.50;102173.97;5074791;28;20033;-80
2022/10/29 00:41:38;;;;;;;6.30;2.80;;;;;;;18.20;65.69;102162.69;5075185;28;20123;-80
2022/10/29 00:44:22;;;;;;;3.97;2.45;;;;;;;18.20;65.62;102155.72;5058640;28;20111;-79
2022/10/29 00:46:55;;;;;;;4.60;2.40;;;;;;;18.19;65.42;102156.59;5074604;28;20024;-80
2022/10/29 00:49:23;;;;;;;4.15;2.63;;;;;;;18.20;65.64;102147.91;5074256;28;20024;-81
2022/10/29 00:51:49;;;;;;;6.38;2.47;;;;;;;18.19;65.75;102143.56;5057732;28;20428;-79
2022/10/29 00:54:15;;;;;;;6.13;2.50;;;;;;;18.19;65.55;102154.00;5057643;28;20025;-80
2022/10/29 00:56:46;;;;;;;4.22;2.50;;;;;;;18.20;65.55;102155.72;5073581;28;20439;-79
2022/10/29 00:59:14;;;;;;;6.15;2.88;;;;;;;18.20;65.63;102153.13;5074214;28;20115;-79
2022/10/29 01:01:42;;;;;;;5.45;2.45;;;;;;;18.19;65.62;102151.38;5073832;28;20033;-80
2022/10/29 01:04:09;;;;;;;4.97;2.28;;;;;;;18.19;65.32;102156.59;5075276;28;20025;-80
2022/10/29 01:06:35;;;;;;;5.25;2.85;;;;;;;18.19;65.63;102158.34;5077975;28;20039;-80
2022/10/29 01:09:00;;;;;;;5.03;2.70;;;;;;;18.19;65.63;102159.19;5061181;28;20020;-80
2022/10/29 01:11:51;;;;;;;4.28;2.50;;;;;;;18.17;65.53;102142.69;5077725;28;20124;-80
2022/10/29 01:14:37;;;;;;;4.68;2.55;;;;;;;18.18;65.58;102139.22;5078251;28;20082;-79
2022/10/29 01:17:08;;;;;;;4.07;2.20;;;;;;;18.17;65.36;102134.00;5079072;28;20032;-80
2022/10/29 01:19:56;;;;;;;4.15;2.15;;;;;;;18.18;65.68;102134.03;5077958;28;20403;-81
2022/10/29 01:22:59;;;;;;;4.50;2.47;;;;;;;18.17;65.57;102121.84;5077658;28;20016;-80
2022/10/29 01:25:49;;;;;;;5.03;2.17;;;;;;;18.17;65.42;102120.97;5078094;28;20028;-80
2022/10/29 01:28:17;;;;;;;4.80;2.38;;;;;;;18.18;65.59;102110.56;5078167;28;20024;-78
2022/10/29 01:31:14;;;;;;;6.05;2.42;;;;;;;18.17;65.40;102120.97;5078054;28;20024;-78
2022/10/29 01:33:52;;;;;;;4.72;1.92;;;;;;;18.16;65.43;102117.50;5075311;28;20123;-79
2022/10/29 01:36:20;;;;;;;3.67;2.10;;;;;;;18.16;65.50;102122.72;5075245;28;20066;-79
2022/10/29 01:38:50;;;;;;;4.20;2.28;;;;;;;18.17;65.60;102131.41;5075044;28;20122;-77
2022/10/29 01:41:27;;;;;;;4.18;2.40;;;;;;;18.16;65.29;102130.53;5075091;28;20115;-80
2022/10/29 01:44:00;;;;;;;6.57;2.45;;;;;;;18.17;65.46;102131.41;5076313;28;20506;-79
2022/10/29 01:47:02;;;;;;;3.90;2.08;;;;;;;18.16;65.44;102134.84;5076587;28;20555;-80
2022/10/29 01:49:40;;;;;;;3.75;2.20;;;;;;;18.16;65.51;102145.25;4998778;28;20037;-80
2022/10/29 01:52:09;;;;;;;5.88;2.55;;;;;;;18.16;65.44;102145.25;5066624;28;20028;-80
2022/10/29 01:54:40;;;;;;;5.10;2.20;;;;;;;18.15;65.54;102138.31;5075620;28;20446;-80
2022/10/29 01:57:34;;;;;;;4.25;2.13;;;;;;;18.14;65.48;102131.34;5079198;28;20025;-78
2022/10/29 02:00:09;;;;;;;3.80;1.92;;;;;;;18.15;65.54;102125.28;5079293;28;20027;-78
2022/10/29 02:02:59;;;;;;;3.67;2.13;;;;;;;18.13;65.47;102122.66;5079861;28;20040;-78
2022/10/29 02:05:38;;;;;;;3.63;2.30;;;;;;;18.14;65.40;102105.31;5078722;28;20029;-79
2022/10/29 02:08:45;;;;;;;4.35;2.20;;;;;;;18.13;65.40;102101.81;5079280;28;20056;-80
2022/10/29 02:11:20;;;;;;;5.03;2.47;;;;;;;18.14;65.69;102110.50;5078406;28;20063;-80
2022/10/29 02:13:56;;;;;;;4.25;1.95;;;;;;;18.14;65.22;102107.91;5076837;28;20020;-80
2022/10/29 02:16:23;;;;;;;4.75;2.42;;;;;;;18.14;65.35;102097.47;5078324;28;20082;-79
2022/10/29 02:18:49;;;;;;;3.78;2.40;;;;;;;18.13;65.36;102096.63;5076686;28;20048;-80
2022/10/29 02:21:19;;;;;;;4.60;2.55;;;;;;;18.14;65.37;102095.78;5076992;28;20128;-79
2022/10/29 02:23:45;;;;;;;3.47;1.92;;;;;;;18.13;65.41;102087.94;5076673;28;20029;-80
2022/10/29 02:26:11;;;;;;;4.50;2.38;;;;;;;18.13;65.24;102087.94;5060875;28;20046;-80
2022/10/29 02:28:36;;;;;;;6.78;2.22;;;;;;;18.13;65.24;102086.19;5076992;28;20466;-80
2022/10/29 02:31:02;;;;;;;4.20;2.25;;;;;;;18.13;65.48;102087.94;5060083;28;20490;-78
2022/10/29 02:33:27;;;;;;;2.97;1.90;;;;;;;18.14;65.43;102095.78;5060083;28;20081;-81
2022/10/29 02:35:52;;;;;;;3.85;2.35;;;;;;;18.13;65.31;102099.22;5076355;28;20025;-80
2022/10/29 02:38:18;;;;;;;3.80;2.17;;;;;;;18.13;65.35;102087.94;5059049;28;20036;-80
2022/10/29 02:40:46;;;;;;;4.38;2.00;;;;;;;18.14;65.29;102094.88;5093230;28;20029;-79
2022/10/29 02:43:12;;;;;;;3.40;1.92;;;;;;;18.13;65.16;102096.63;5059851;28;20517;-80
2022/10/29 02:45:37;;;;;;;4.30;2.00;;;;;;;18.13;65.42;102087.94;5060261;28;20029;-80
2022/10/29 02:48:03;;;;;;;3.67;2.30;;;;;;;18.12;65.19;102086.19;5059839;28;20024;-79
2022/10/29 02:50:28;;;;;;;3.38;2.13;;;;;;;18.14;65.37;102094.88;5075983;28;20051;-79
2022/10/29 02:52:53;;;;;;;2.78;1.90;;;;;;;18.14;65.40;102094.88;5059396;28;20561;-79
2022/10/29 02:55:19;;;;;;;3.47;2.10;;;;;;;18.13;65.12;102094.00;5058989;28;20024;-79
2022/10/29 02:57:44;;;;;;;4.32;2.08;;;;;;;18.12;65.24;102088.78;5075234;28;20033;-80
2022/10/29 03:00:11;;;;;;;2.75;1.83;;;;;;;18.12;65.13;102081.88;5075443;28;20032;-80
2022/10/29 03:02:36;;;;;;;3.45;1.98;;;;;;;18.12;65.29;102075.75;5058820;28;20029;-80
2022/10/29 03:05:02;;;;;;;3.80;1.98;;;;;;;18.11;65.21;102080.09;5075450;28;20031;-79
2022/10/29 03:07:27;;;;;;;3.47;2.10;;;;;;;18.11;65.25;102072.28;5092424;28;20028;-80
2022/10/29 03:09:53;;;;;;;2.80;1.70;;;;;;;18.11;65.13;102066.22;5075406;28;20024;-80
2022/10/29 03:12:18;;;;;;;4.63;1.98;;;;;;;18.12;65.16;102070.53;5074618;28;20028;-80
2022/10/29 03:14:43;;;;;;;3.10;1.80;;;;;;;18.13;65.05;102072.31;5058213;28;20518;-80
2022/10/29 03:17:09;;;;;;;3.05;1.70;;;;;;;18.11;65.16;102074.88;5074612;28;20029;-80
2022/10/29 03:19:34;;;;;;;2.90;1.83;;;;;;;18.11;65.10;102074.03;5057982;28;20084;-79
2022/10/29 03:21:59;;;;;;;3.47;1.95;;;;;;;18.11;65.38;102077.50;5074976;28;20036;-80
2022/10/29 03:24:25;;;;;;;4.28;2.10;;;;;;;18.11;65.27;102077.50;5057607;28;20111;-80
2022/10/29 03:26:50;;;;;;;3.78;1.90;;;;;;;18.10;65.23;102067.94;5074480;28;20463;-80
2022/10/29 03:29:15;;;;;;;3.22;1.77;;;;;;;18.11;65.08;102074.88;5058121;28;20029;-80
2022/10/29 03:31:41;;;;;;;3.58;1.88;;;;;;;18.12;65.07;102083.56;5074841;28;20028;-80
2022/10/29 03:34:06;;;;;;;3.22;1.80;;;;;;;18.11;64.86;102069.69;5058472;28;20040;-79
2022/10/29 03:36:31;;;;;;;2.75;1.80;;;;;;;18.11;65.15;102074.03;5058225;28;20536;-80
2022/10/29 03:38:57;;;;;;;2.90;1.70;;;;;;;18.11;65.57;102061.00;5058040;28;20497;-80
2022/10/29 03:41:22;;;;;;;2.78;1.70;;;;;;;18.09;64.99;102059.28;5057744;28;20035;-79
2022/10/29 03:43:47;;;;;;;3.20;1.80;;;;;;;18.09;64.95;102059.28;5057686;28;20035;-80
2022/10/29 03:46:13;;;;;;;3.22;1.77;;;;;;;18.11;65.05;102063.59;5057967;28;20109;-80
2022/10/29 03:48:38;;;;;;;3.30;1.83;;;;;;;18.10;65.13;102070.56;5075058;28;20028;-80
2022/10/29 03:51:05;;;;;;;3.97;1.95;;;;;;;18.09;64.95;102064.47;5058723;28;20075;-79
2022/10/29 03:53:31;;;;;;;3.15;1.90;;;;;;;18.09;65.03;102055.78;5075145;28;20438;-81
2022/10/29 03:55:57;;;;;;;3.35;1.70;;;;;;;18.09;65.11;102053.16;5074777;28;20017;-78
2022/10/29 03:58:24;;;;;;;3.20;1.73;;;;;;;18.08;65.11;102054.91;5074458;28;20115;-80
2022/10/29 04:01:00;;;;;;;3.40;1.77;;;;;;;18.09;65.01;102059.28;5057912;28;20029;-80
2022/10/29 04:03:27;;;;;;;3.05;1.80;;;;;;;18.09;64.93;102060.97;5074627;28;20024;-79
2022/10/29 04:05:53;;;;;;;3.80;1.80;;;;;;;18.09;65.25;102068.78;5076359;28;20074;-80
2022/10/29 04:08:18;;;;;;;2.75;1.38;;;;;;;18.09;64.92;102067.09;5091015;28;20447;-80
2022/10/29 04:10:49;;;;;;;3.05;1.60;;;;;;;18.08;65.01;102056.66;5074335;28;20040;-80
2022/10/29 04:13:14;;;;;;;4.72;1.70;;;;;;;18.09;65.21;102050.56;5073671;28;20388;-80
2022/10/29 04:15:40;;;;;;;2.78;1.73;;;;;;;18.09;65.08;102053.16;5057423;28;20029;-79
2022/10/29 04:18:06;;;;;;;2.90;1.50;;;;;;;18.08;65.11;102054.03;5073449;28;21341;-79
2022/10/29 04:20:31;;;;;;;2.88;1.90;;;;;;;18.08;64.93;102065.31;5072305;28;20390;-80
2022/10/29 04:22:56;;;;;;;3.10;1.48;;;;;;;18.08;65.06;102062.72;5055843;28;20119;-79
2022/10/29 04:25:22;;;;;;;2.22;1.60;;;;;;;18.08;64.89;102065.31;5074209;28;20488;-79
2022/10/29 04:27:47;;;;;;;2.50;1.40;;;;;;;18.08;65.02;102065.31;5057310;28;20024;-80
2022/10/29 04:30:12;;;;;;;2.28;1.40;;;;;;;18.08;64.88;102061.84;5073373;28;20032;-79
2022/10/29 04:32:38;;;;;;;2.70;1.58;;;;;;;18.08;64.94;102061.84;5056430;28;20057;-80
2022/10/29 04:35:04;;;;;;;2.88;1.77;;;;;;;18.07;65.42;102058.38;5056702;28;20052;-80
2022/10/29 04:37:29;;;;;;;2.35;1.42;;;;;;;18.08;64.82;102062.72;5073176;28;20485;-80
2022/10/29 04:39:55;;;;;;;2.47;1.55;;;;;;;18.07;64.98;102061.00;5075853;28;20036;-80
2022/10/29 04:42:20;;;;;;;2.38;1.50;;;;;;;18.08;65.04;102054.91;5060495;28;20140;-80
2022/10/29 04:44:45;;;;;;;2.58;1.38;;;;;;;18.07;65.25;102047.06;5060211;28;20385;-80
2022/10/29 04:47:11;;;;;;;2.35;1.50;;;;;;;18.07;64.93;102047.06;5060030;28;20024;-79
2022/10/29 04:49:36;;;;;;;1.95;1.48;;;;;;;18.06;64.98;102042.72;5076620;28;20031;-80
2022/10/29 04:52:02;;;;;;;3.65;1.75;;;;;;;18.06;64.96;102046.19;5060575;28;20028;-80
2022/10/29 04:54:27;;;;;;;2.30;1.48;;;;;;;18.07;64.87;102045.34;5094075;28;20029;-79
2022/10/29 04:56:53;;;;;;;2.60;1.63;;;;;;;18.06;65.06;102045.34;5061553;28;20151;-79
2022/10/29 04:59:18;;;;;;;3.03;1.60;;;;;;;18.06;65.11;102040.13;5079120;28;20032;-78
2022/10/29 05:01:43;;;;;;;2.42;1.60;;;;;;;18.06;64.95;102046.19;5078977;28;20066;-79
2022/10/29 05:04:09;;;;;;;1.98;1.45;;;;;;;18.07;64.97;102045.34;5079189;28;20033;-79
2022/10/29 05:06:34;;;;;;;2.95;1.52;;;;;;;18.06;65.23;102041.00;5061560;28;20506;-80
2022/10/29 05:08:59;;;;;;;2.13;1.40;;;;;;;18.06;65.07;102038.38;5078307;28;20020;-79
2022/10/29 05:11:25;;;;;;;2.10;1.52;;;;;;;18.07;65.06;102026.22;5060757;28;20036;-79
2022/10/29 05:13:50;;;;;;;2.85;1.48;;;;;;;18.07;64.90;102028.84;5078431;28;20033;-80
2022/10/29 05:16:15;;;;;;;3.10;1.55;;;;;;;18.06;65.07;102019.28;5061855;28;20105;-79
2022/10/29 05:18:41;;;;;;;2.92;1.60;;;;;;;18.05;65.02;102014.94;5061277;28;20136;-79
2022/10/29 05:21:06;;;;;;;2.03;1.50;;;;;;;18.06;64.81;102014.09;5060992;28;20424;-80
2022/10/29 05:23:32;;;;;;;2.95;1.40;;;;;;;18.05;64.85;102005.41;5061629;28;20025;-78
2022/10/29 05:25:57;;;;;;;2.13;1.45;;;;;;;18.05;64.98;102000.19;5077123;28;20036;-80
2022/10/29 05:28:23;;;;;;;3.13;1.40;;;;;;;18.06;64.88;102003.66;5077603;28;20028;-79
2022/10/29 05:30:51;;;;;;;3.00;1.50;;;;;;;18.05;65.08;102005.41;5077616;28;20040;-80
2022/10/29 05:33:22;;;;;;;2.45;1.40;;;;;;;18.06;65.07;102001.06;5078478;28;20024;-80
2022/10/29 05:35:48;;;;;;;1.92;1.38;;;;;;;18.04;65.09;101990.63;5077969;28;20032;-79
2022/10/29 05:38:14;;;;;;;2.83;1.40;;;;;;;18.04;64.96;101998.44;5079653;28;20041;-79
2022/10/29 05:40:41;;;;;;;2.65;1.40;;;;;;;18.04;65.22;102006.25;5078629;28;20031;-80
2022/10/29 05:43:07;;;;;;;2.17;1.30;;;;;;;18.05;64.88;101994.97;5094508;28;20047;-79
2022/10/29 05:45:32;;;;;;;2.35;1.30;;;;;;;18.05;64.97;101999.28;5077432;28;20115;-78
2022/10/29 05:48:00;;;;;;;2.58;1.45;;;;;;;18.04;65.07;101993.22;5078457;28;20056;-79
2022/10/29 05:50:26;;;;;;;2.10;1.42;;;;;;;18.04;64.89;101998.44;5078136;28;20028;-79
2022/10/29 05:53:00;;;;;;;2.42;1.25;;;;;;;18.04;64.78;101997.56;5062148;28;20025;-79
2022/10/29 05:55:27;;;;;;;2.60;1.58;;;;;;;18.04;64.98;102001.03;5078180;28;20063;-79
2022/10/29 05:57:57;;;;;;;2.03;1.20;;;;;;;18.04;64.99;101992.34;5078681;28;20119;-80
2022/10/29 06:00:23;;;;;;;2.47;1.30;;;;;;;18.03;64.90;101988.88;5078966;28;20119;-80
2022/10/29 06:02:48;;;;;;;2.95;1.55;;;;;;;18.04;64.86;101992.34;5078657;28;20032;-80
2022/10/29 06:05:13;;;;;;;3.30;1.27;;;;;;;18.04;64.81;101995.81;5078842;28;20035;-80
2022/10/29 06:07:39;;;;;;;2.75;1.60;;;;;;;18.03;64.81;101988.88;5078740;28;20037;-79
2022/10/29 06:10:05;;;;;;;2.30;1.30;;;;;;;18.03;64.72;101993.19;5061979;28;20024;-80
2022/10/29 06:12:31;;;;;;;2.33;1.42;;;;;;;18.03;64.90;101994.09;5078132;28;20092;-80
2022/10/29 06:14:57;;;;;;;2.17;1.40;;;;;;;18.04;64.97;101995.81;5061744;28;20035;-80
2022/10/29 06:17:22;;;;;;;2.65;1.65;;;;;;;18.04;65.06;101987.16;5061514;28;20131;-79
2022/10/29 06:19:48;;;;;;;2.67;1.45;;;;;;;18.03;65.08;101977.56;5061906;28;20041;-80
2022/10/29 06:22:13;;;;;;;2.35;1.40;;;;;;;18.03;64.99;101978.47;5079574;28;20046;-80
2022/10/29 06:24:38;;;;;;;1.80;1.15;;;;;;;18.03;64.87;101978.47;5062245;28;20029;-80
2022/10/29 06:27:04;;;;;;;2.97;1.50;;;;;;;18.02;64.97;101984.53;5062205;28;20082;-80
2022/10/29 06:29:29;;;;;;;2.05;1.42;;;;;;;18.04;65.07;101993.22;5060010;28;20028;-80
2022/10/29 06:31:54;;;;;;;2.05;1.42;;;;;;;18.03;64.94;101994.09;5077658;28;20371;-79
2022/10/29 06:34:20;;;;;;;2.60;1.30;;;;;;;18.03;64.98;101995.81;5060803;28;20029;-82
2022/10/29 06:36:45;;;;;;;2.33;1.40;;;;;;;18.04;64.94;102001.03;5080643;28;20087;-83
2022/10/29 06:39:10;;;;;;;3.15;1.42;;;;;;;18.03;64.86;101991.50;5065229;28;20078;-82
2022/10/29 06:41:36;;;;;;;1.90;1.40;;;;;;;18.04;64.98;102003.63;5083133;28;20031;-79
2022/10/29 06:44:01;;;;;;;2.72;1.40;;;;;;;18.04;64.84;101994.97;5078756;28;20095;-81
2022/10/29 06:46:26;;;;;;;2.70;1.50;;;;;;;18.05;64.88;101986.28;5078246;28;20074;-82
2022/10/29 06:48:52;;;;;;;2.83;1.45;;;;;;;18.05;64.83;101988.88;5078480;28;20028;-81
2022/10/29 06:51:17;;;;;;;3.92;1.38;;;;;;;18.05;64.90;101979.34;5077095;28;20443;-81
2022/10/29 06:53:43;;;;;;;2.53;1.50;;;;;;;18.05;64.83;101970.66;5075863;28;20032;-81
2022/10/29 06:56:08;;;;;;;2.58;1.40;;;;;;;18.05;64.74;101974.16;5058726;28;20036;-81
2022/10/29 06:58:33;;;;;;;3.65;1.30;;;;;;;18.06;64.81;101972.41;5058376;28;20116;-81
2022/10/29 07:01:02;;;;;;;1.88;1.20;;;;;;;18.07;65.23;101966.31;5060009;28;20470;-81
2022/10/29 07:03:28;;;;;;;2.25;1.40;;;;;;;18.06;64.90;101969.81;5060365;28;20025;-81
2022/10/29 07:05:58;;;;;;;2.05;1.27;;;;;;;18.06;64.81;101967.19;5060828;28;20035;-81
2022/10/29 07:08:24;;;;;;;1.92;1.10;;;;;;;18.07;64.75;101968.91;5079940;28;20043;-81
2022/10/29 07:10:51;;;;;;;2.70;1.40;;;;;;;18.05;64.92;101965.44;5079485;28;20035;-81
2022/10/29 07:13:17;;;;;;;2.00;1.27;;;;;;;18.04;64.90;101966.31;5076875;28;20028;-81
2022/10/29 07:15:42;;;;;;;3.15;1.42;;;;;;;18.05;64.85;101958.50;5058946;28;20130;-81
2022/10/29 07:18:08;;;;;;;1.73;1.38;;;;;;;18.05;64.74;101950.69;5075421;28;20054;-81
2022/10/29 07:20:37;;;;;;;2.70;1.20;;;;;;;18.06;64.88;101951.56;5076955;28;20029;-81
2022/10/29 07:23:02;;;;;;;1.48;1.23;;;;;;;18.07;64.95;101943.78;5075520;28;20024;-81
2022/10/29 07:25:29;;;;;;;2.15;1.17;;;;;;;18.07;64.82;101938.56;5075716;28;20054;-81
2022/10/29 07:28:00;;;;;;;2.30;1.30;;;;;;;18.08;64.63;101944.63;5059976;28;20035;-81
2022/10/29 07:30:26;;;;;;;4.57;1.63;;;;;;;18.09;64.72;101938.53;5075976;28;20174;-81
2022/10/29 07:32:52;;;;;;;2.70;1.33;;;;;;;18.10;64.61;101935.09;5083012;28;20052;-80
2022/10/29 07:35:17;;;;;;;2.13;1.30;;;;;;;18.11;64.64;101928.16;5061386;28;20028;-81
2022/10/29 07:37:42;;;;;;;2.45;1.23;;;;;;;18.14;64.68;101935.97;5076742;28;20024;-80
2022/10/29 07:40:09;;;;;;;1.90;1.30;;;;;;;18.14;64.72;101942.06;5058402;28;20390;-81
2022/10/29 07:42:34;;;;;;;3.25;1.38;;;;;;;18.13;64.86;101940.31;5074906;28;20024;-80
2022/10/29 07:45:00;;;;;;;2.20;1.27;;;;;;;18.14;64.54;101944.69;5057642;28;20531;-80
2022/10/29 07:47:25;;;;;;;1.98;1.17;;;;;;;18.14;64.52;101938.56;5058423;28;20367;-81
2022/10/29 07:49:50;;;;;;;2.22;1.33;;;;;;;18.12;64.54;101945.50;5074485;28;20024;-82
2022/10/29 07:52:16;;;;;;;4.35;1.45;;;;;;;18.09;64.71;101942.03;5074466;28;20039;-80
2022/10/29 07:54:41;;;;;;;2.50;1.27;;;;;;;18.09;64.53;101942.03;5075187;28;20031;-81
2022/10/29 07:57:07;;;;;;;4.28;1.35;;;;;;;18.11;64.69;101949.84;5089182;28;20084;-81
2022/10/29 07:59:32;;;;;;;2.30;1.33;;;;;;;18.10;64.56;101945.53;5079089;28;20013;-84
2022/10/29 08:01:57;;;;;;;2.10;1.25;;;;;;;18.11;64.86;101944.63;5080831;28;20019;-81
2022/10/29 08:04:23;;;;;;;6.25;2.00;;;;;;;18.14;64.93;101954.19;5095068;28;20043;-82
2022/10/29 08:06:48;;;;;;;14.57;3.75;;;;;;;18.16;64.93;101947.28;5095957;28;20012;-83
2022/10/29 08:09:16;;;;;;;11.73;3.17;;;;;;;18.18;64.91;101950.75;5080454;28;20036;-83
2022/10/29 08:11:42;;;;;;;14.00;3.72;;;;;;;18.19;64.90;101947.31;5092611;28;20382;-84
2022/10/29 08:14:11;;;;;;;14.02;3.92;;;;;;;18.20;65.12;101952.50;5091547;28;20012;-85
2022/10/29 08:16:37;;;;;;;15.52;3.10;;;;;;;18.23;64.92;101954.28;5094196;28;20024;-83
2022/10/29 08:19:02;;;;;;;9.95;2.83;;;;;;;18.23;65.04;101952.53;5076883;28;20064;-82
2022/10/29 08:21:27;;;;;;;9.80;2.97;;;;;;;18.23;64.70;101957.75;5088706;28;20108;-82
2022/10/29 08:23:53;;;;;;;8.80;3.08;;;;;;;18.24;64.68;101954.25;5074469;28;20119;-81
2022/10/29 08:56:25;;;;;;;7.18;2.30;;;;;;;18.39;64.40;101931.75;5567493;23;20058;-80
2022/10/29 08:59:30;;;;;;;4.57;2.20;;;;;;;18.42;64.58;101932.66;5021138;28;20034;-88
2022/10/29 11:15:45;;;;;;;4.57;2.30;;;;;;;18.34;67.75;101811.00;4860850;29;20041;-84
2022/10/29 11:18:34;;;;;;;3.95;2.45;;;;;;;18.35;67.81;101805.78;4844766;29;20046;-80
2022/10/29 11:21:39;;;;;;;8.93;2.80;;;;;;;18.38;67.65;101810.13;4880672;29;20034;-83
2022/10/29 11:24:20;;;;;;;9.98;2.90;;;;;;;18.35;67.68;101813.59;4878778;29;20038;-81
2022/10/29 11:27:16;;;;;;;4.28;2.45;;;;;;;18.34;67.96;101806.66;4860474;29;20053;-80
2022/10/29 11:36:52;;;;;;;5.95;2.85;;;;;;;18.38;67.87;101790.19;4884933;29;20022;-85
2022/10/29 11:51:24;;;;;;;8.90;2.80;;;;;;;18.44;67.87;101771.94;4883514;29;20062;-86
2022/10/29 11:54:24;;;;;;;5.22;2.60;;;;;;;18.44;67.81;101758.03;4876185;29;20033;-86
2022/10/29 12:01:08;;;;;;;5.47;2.70;;;;;;;18.45;68.13;101750.22;4884051;29;20044;-87
2022/10/29 12:31:26;;;;;;;4.72;2.72;;;;;;;18.16;70.63;101737.16;4859854;29;20416;-79
2022/10/29 12:34:07;;;;;;;7.63;3.03;;;;;;;18.17;70.58;101738.00;4860035;29;20036;-79
2022/10/29 12:36:46;;;;;;;6.50;2.75;;;;;;;18.16;70.59;101741.47;4840195;29;20065;-83
2022/10/29 12:39:25;;;;;;;6.55;2.60;;;;;;;18.19;69.99;101734.53;4840333;29;20061;-81
2022/10/29 12:42:14;;;;;;;10.20;2.83;;;;;;;18.19;70.58;101734.53;4853680;29;20034;-80
2022/10/29 12:44:58;;;;;;;6.22;2.58;;;;;;;18.20;70.67;101731.06;4841292;29;20030;-82
2022/10/29 12:51:18;;;;;;;6.53;3.03;;;;;;;18.14;72.68;101736.28;4860283;29;20033;-83
2022/10/29 12:57:26;;;;;;;7.78;2.97;;;;;;;18.16;71.26;101744.06;4854988;29;20091;-81
2022/10/29 12:59:52;;;;;;;8.15;2.90;;;;;;;18.20;71.10;101736.25;4849818;29;20026;-81
2022/10/29 13:02:37;;;;;;;6.15;3.13;;;;;;;18.23;70.56;101736.28;4838224;29;20041;-81
2022/10/29 13:05:05;;;;;;;9.90;2.90;;;;;;;18.23;70.88;101732.81;4850113;29;20037;-81
2022/10/29 13:07:34;;;;;;;5.53;2.70;;;;;;;18.20;70.64;101725.84;4852612;29;20033;-80
2022/10/29 13:10:21;;;;;;;5.57;2.50;;;;;;;18.19;70.80;101725.84;4822735;29;20034;-81
2022/10/29 13:15:47;;;;;;;9.65;3.25;;;;;;;18.16;71.61;101721.53;5270025;23;20113;-84
2022/10/29 13:18:38;;;;;;;11.50;3.35;;;;;;;18.25;71.85;101707.63;4878778;29;20097;-80
2022/10/29 13:21:05;;;;;;;14.75;4.20;;;;;;;18.27;71.89;101706.78;4870510;29;20404;-81
2022/10/29 13:24:00;;;;;;;14.57;5.00;;;;;;;18.19;72.91;101685.03;4882474;29;20040;-83
2022/10/29 13:30:13;;;;;;;12.88;6.38;;;;;;;18.17;71.79;101680.69;4950058;23;20071;-82
2022/10/29 13:39:20;;;;;;;16.83;6.75;;;;;;;18.17;71.08;101684.16;5412992;23;20072;-81
2022/10/29 13:41:50;;;;;;;17.80;7.18;;;;;;;18.16;71.26;101676.34;4862921;29;20485;-79
2022/10/29 13:44:25;;;;;;;16.33;6.70;;;;;;;18.16;71.41;101682.44;4867165;29;20037;-80
2022/10/29 13:47:16;;;;;;;15.52;7.18;;;;;;;18.17;71.35;101673.75;4867726;29;20041;-79
2022/10/29 13:49:44;;;;;;;14.35;6.80;;;;;;;18.15;71.80;101670.28;4869522;29;20049;-80
2022/10/29 13:52:23;;;;;;;14.52;6.55;;;;;;;18.14;71.79;101680.69;4875813;29;20025;-80
2022/10/29 13:54:51;;;;;;;15.50;6.57;;;;;;;18.15;72.05;101680.69;4873883;29;20034;-82
2022/10/29 13:57:23;;;;;;;21.30;7.03;;;;;;;18.13;72.13;101674.59;4869088;29;20029;-79
2022/10/29 14:10:28;;;;;;;16.40;6.65;;;;;;;18.11;72.50;101672.88;5911679;23;20024;-82
2022/10/29 14:16:38;;;;;;;12.20;5.40;;;;;;;18.09;72.13;101675.47;4811847;29;20069;-84
2022/10/29 14:19:21;;;;;;;14.02;5.53;;;;;;;18.07;72.41;101666.78;4796570;29;20043;-84
2022/10/29 15:11:00;;;;;;;8.68;4.70;;;;;;;17.97;73.71;101634.66;4858154;29;20052;-82
2022/10/29 15:13:44;;;;;;;10.07;4.68;;;;;;;17.97;74.21;101636.41;4849157;29;20109;-82
2022/10/29 15:16:20;;;;;;;12.15;4.40;;;;;;;17.96;74.48;101632.03;4854917;29;20034;-82
2022/10/29 15:19:10;;;;;;;9.95;4.75;;;;;;;17.92;74.82;101619.88;4838050;29;20061;-81
2022/10/29 15:21:38;;;;;;;6.97;4.25;;;;;;;17.91;74.02;101621.63;4846840;29;20041;-81
2022/10/29 15:24:08;;;;;;;11.65;4.75;;;;;;;17.91;75.30;101623.38;4843274;29;20508;-80
2022/10/29 15:26:42;;;;;;;9.30;4.05;;;;;;;17.91;74.90;101624.22;4846911;29;20030;-80
2022/10/29 15:29:09;;;;;;;9.35;4.60;;;;;;;17.89;75.04;101629.41;4841899;29;20025;-81
2022/10/29 15:32:14;;;;;;;7.93;4.10;;;;;;;17.92;74.54;101618.16;4846233;29;20033;-82
2022/10/29 15:34:45;;;;;;;;;;;;;;;17.91;74.53;101618.16;4829563;29;20030;-81
2022/10/29 15:37:17;;;;;;;7.72;4.22;;;;;;;17.91;75.09;101612.94;4849156;29;20324;-80
2022/10/29 15:40:21;;;;;;;7.55;4.25;;;;;;;17.89;74.31;101605.97;4851458;29;20080;-82
2022/10/29 15:43:44;;;;;;;8.18;4.20;;;;;;;17.88;74.79;101603.41;4854982;29;20029;-83
2022/10/29 15:53:38;;;;;;;7.43;3.63;;;;;;;17.88;74.87;101606.00;4795767;29;20091;-83
2022/10/29 15:56:42;;;;;;;6.25;3.70;;;;;;;17.88;74.47;101591.25;4809985;29;20055;-83
2022/10/29 15:59:46;;;;;;;6.45;3.90;;;;;;;17.87;74.85;101586.03;4760450;30;20078;-83
2022/10/29 16:02:55;;;;;;;7.20;4.10;;;;;;;17.87;74.15;101589.50;4785147;30;20047;-82
2022/10/29 16:05:51;;;;;;;7.82;4.18;;;;;;;17.87;74.56;101583.41;4851379;29;20540;-83
2022/10/29 16:09:06;;;;;;;7.20;3.95;;;;;;;17.86;75.16;101579.97;4791567;30;20055;-83
2022/10/29 16:12:20;;;;;;;5.25;3.42;;;;;;;17.86;74.58;101571.28;4799527;30;20049;-83
2022/10/29 16:15:26;;;;;;;7.25;3.80;;;;;;;17.85;74.78;101567.78;4793642;30;20053;-83
2022/10/29 16:18:30;;;;;;;5.72;3.45;;;;;;;17.85;74.93;101566.94;4810141;29;20051;-83
2022/10/29 16:25:24;;;;;;;5.70;3.63;;;;;;;17.84;74.63;101576.47;4774871;30;20131;-83
2022/10/29 16:29:02;;;;;;;6.97;3.58;;;;;;;17.81;74.65;101566.03;4754499;30;20037;-83
2022/10/29 16:32:06;;;;;;;4.90;3.40;;;;;;;17.83;75.20;101576.47;4739319;30;20067;-83
2022/10/29 16:34:33;;;;;;;8.40;3.72;;;;;;;17.82;75.51;101586.03;4748507;30;20071;-81
2022/10/29 16:37:36;;;;;;;7.53;3.70;;;;;;;17.83;75.15;101589.47;4725011;30;20052;-83
2022/10/29 16:40:23;;;;;;;9.35;3.88;;;;;;;17.81;75.37;101579.06;4752058;30;20053;-83
2022/10/29 16:43:18;;;;;;;5.97;3.67;;;;;;;17.82;75.23;101566.94;4733064;30;20555;-83
2022/10/29 16:46:25;;;;;;;7.20;3.15;;;;;;;17.83;76.17;101566.06;4725748;30;20146;-83
2022/10/29 16:48:56;;;;;;;6.60;3.60;;;;;;;17.83;75.83;101566.06;4755534;30;20105;-82
2022/10/29 16:52:03;;;;;;;6.40;3.60;;;;;;;17.83;75.31;101555.63;4748713;30;20037;-81
2022/10/29 16:54:30;;;;;;;5.47;3.40;;;;;;;17.81;76.01;101549.53;4719685;30;20065;-81
2022/10/29 16:56:56;;;;;;;5.38;3.40;;;;;;;17.80;76.41;101553.88;4744709;30;20047;-81